createdAt,value
2022-09-28T00:02:12.705Z,16.40
2022-09-28T00:04:39.394Z,19.80
2022-09-28T00:07:05.859Z,20.60
2022-09-28T00:09:32.408Z,17.75
2022-09-28T00:11:59.479Z,19.92
2022-09-28T00:14:26.494Z,22.83
2022-09-28T00:16:53.159Z,18.60
2022-09-28T00:19:19.659Z,23.57
2022-09-28T00:21:46.221Z,18.38
2022-09-28T00:24:17.207Z,24.85
2022-09-28T00:26:52.595Z,22.40
2022-09-28T00:29:23.441Z,21.20
2022-09-28T00:32:02.134Z,21.70
2022-09-28T00:34:31.925Z,23.15
2022-09-28T00:36:59.616Z,25.70
2022-09-28T00:39:27.103Z,19.83
2022-09-28T00:41:54.523Z,19.23
2022-09-28T00:44:24.122Z,24.57
2022-09-28T00:47:02.183Z,23.25
2022-09-28T00:49:43.316Z,20.05
2022-09-28T00:52:15.010Z,24.83
2022-09-28T00:54:45.311Z,17.10
2022-09-28T00:57:12.729Z,17.53
2022-09-28T00:59:40.419Z,16.35
2022-09-28T01:02:07.455Z,15.13
2022-09-28T01:04:34.092Z,15.93
2022-09-28T01:07:00.598Z,10.43
2022-09-28T01:09:27.737Z,14.53
2022-09-28T01:11:55.223Z,19.05
2022-09-28T01:14:25.638Z,15.98
2022-09-28T01:17:01.111Z,20.60
2022-09-28T01:19:33.629Z,12.13
2022-09-28T01:22:26.301Z,18.13
2022-09-28T01:25:32.534Z,26.23
2022-09-28T01:28:06.484Z,22.00
2022-09-28T01:30:47.150Z,27.02
2022-09-28T01:33:30.082Z,10.40
2022-09-28T01:36:12.756Z,13.47
2022-09-28T01:38:51.016Z,17.25
2022-09-28T01:41:19.985Z,17.63
2022-09-28T01:43:53.587Z,16.48
2022-09-28T01:46:37.193Z,20.02
2022-09-28T01:49:11.159Z,10.70
2022-09-28T01:52:09.515Z,18.88
2022-09-28T01:54:51.722Z,8.95
2022-09-28T01:57:27.266Z,24.40
2022-09-28T02:00:04.822Z,15.30
2022-09-28T02:02:54.654Z,9.23
2022-09-28T02:05:40.296Z,21.00
2022-09-28T02:08:20.426Z,6.03
2022-09-28T02:10:57.982Z,2.38
2022-09-28T02:13:37.771Z,6.47
2022-09-28T02:16:16.946Z,3.73
2022-09-28T02:18:45.728Z,3.90
2022-09-28T02:21:26.406Z,5.47
2022-09-28T02:24:01.048Z,18.45
2022-09-28T02:26:33.310Z,63.28
2022-09-28T02:28:59.931Z,65.43
2022-09-28T02:31:27.988Z,34.40
2022-09-28T02:33:57.034Z,30.08
2022-09-28T02:36:26.343Z,24.13
2022-09-28T02:38:53.667Z,12.55
2022-09-28T02:41:27.071Z,15.27
2022-09-28T02:44:15.840Z,35.80
2022-09-28T02:46:51.130Z,21.33
2022-09-28T02:49:29.257Z,23.13
2022-09-28T02:52:41.139Z,28.13
2022-09-28T02:55:16.819Z,27.05
2022-09-28T02:57:43.340Z,21.80
2022-09-28T03:00:19.699Z,9.80
2022-09-28T03:02:52.183Z,12.07
2022-09-28T03:05:33.979Z,15.10
2022-09-28T03:08:06.852Z,3.13
2022-09-28T03:10:46.495Z,3.25
2022-09-28T03:13:16.475Z,6.75
2022-09-28T03:15:48.616Z,4.05
2022-09-28T03:18:16.318Z,4.30
2022-09-28T03:20:43.201Z,4.13
2022-09-28T03:23:24.355Z,3.63
2022-09-28T03:25:51.959Z,6.82
2022-09-28T03:28:18.543Z,13.48
2022-09-28T03:30:45.112Z,8.50
2022-09-28T03:33:11.691Z,15.18
2022-09-28T03:35:38.300Z,19.20
2022-09-28T03:38:04.877Z,6.63
2022-09-28T03:40:31.487Z,5.28
2022-09-28T03:42:59.847Z,7.25
2022-09-28T03:45:26.556Z,6.15
2022-09-28T03:47:53.312Z,4.80
2022-09-28T03:50:21.173Z,4.25
2022-09-28T03:52:47.701Z,4.82
2022-09-28T03:55:14.446Z,5.93
2022-09-28T03:57:40.978Z,4.80
2022-09-28T04:00:08.286Z,7.63
2022-09-28T04:02:35.140Z,4.32
2022-09-28T04:05:02.265Z,9.70
2022-09-28T04:07:31.121Z,5.70
2022-09-28T04:09:57.952Z,6.73
2022-09-28T04:12:24.784Z,6.13
2022-09-28T04:14:51.470Z,3.75
2022-09-28T04:17:18.121Z,4.57
2022-09-28T04:19:44.662Z,9.73
2022-09-28T04:22:11.312Z,3.80
2022-09-28T04:24:37.864Z,5.65
2022-09-28T04:27:23.125Z,4.72
2022-09-28T04:29:49.645Z,5.72
2022-09-28T04:32:16.156Z,5.03
2022-09-28T04:34:44.325Z,9.60
2022-09-28T04:37:11.231Z,13.95
2022-09-28T04:39:38.015Z,6.53
2022-09-28T04:42:04.577Z,8.88
2022-09-28T04:44:31.214Z,8.23
2022-09-28T04:47:00.595Z,7.45
2022-09-28T04:49:29.554Z,7.70
2022-09-28T04:51:56.095Z,5.05
2022-09-28T04:54:22.610Z,6.32
2022-09-28T04:56:49.245Z,5.45
2022-09-28T04:59:15.804Z,8.80
2022-09-28T05:01:42.452Z,6.05
2022-09-28T05:04:08.968Z,16.15
2022-09-28T05:06:35.486Z,4.80
2022-09-28T05:09:02.079Z,8.80
2022-09-28T05:11:28.585Z,4.60
2022-09-28T05:13:55.263Z,5.35
2022-09-28T05:16:21.940Z,6.10
2022-09-28T05:18:48.516Z,6.82
2022-09-28T05:21:15.941Z,5.80
2022-09-28T05:23:46.925Z,5.20
2022-09-28T05:26:14.106Z,4.35
2022-09-28T05:28:40.672Z,4.20
2022-09-28T05:31:07.295Z,4.00
2022-09-28T05:33:34.242Z,16.63
2022-09-28T05:36:02.150Z,6.10
2022-09-28T05:38:30.030Z,6.75
2022-09-28T05:40:57.232Z,9.68
2022-09-28T05:43:24.033Z,17.73
2022-09-28T05:45:55.423Z,13.38
2022-09-28T05:48:22.667Z,8.53
2022-09-28T05:50:52.580Z,8.15
2022-09-28T05:53:20.115Z,20.15
2022-09-28T05:55:47.169Z,16.73
2022-09-28T05:58:13.732Z,7.30
2022-09-28T06:00:40.222Z,10.77
2022-09-28T06:03:10.376Z,4.40
2022-09-28T06:05:39.265Z,9.15
2022-09-28T06:08:08.412Z,5.93
2022-09-28T06:10:35.178Z,10.32
2022-09-28T06:13:02.137Z,7.93
2022-09-28T06:15:32.288Z,12.55
2022-09-28T06:18:04.023Z,16.10
2022-09-28T06:20:34.110Z,13.65
2022-09-28T06:23:00.693Z,13.98
2022-09-28T06:25:30.392Z,11.77
2022-09-28T06:28:02.327Z,11.57
2022-09-28T06:30:31.277Z,10.30
2022-09-28T06:33:00.480Z,7.88
2022-09-28T06:35:30.295Z,10.68
2022-09-28T06:37:57.952Z,7.00
2022-09-28T06:40:25.216Z,7.75
2022-09-28T06:43:02.659Z,13.00
2022-09-28T06:45:30.435Z,6.97
2022-09-28T06:47:58.819Z,13.52
2022-09-28T06:50:40.600Z,11.87
2022-09-28T06:53:09.572Z,9.43
2022-09-28T06:55:43.150Z,9.10
2022-09-28T06:58:15.270Z,7.15
2022-09-28T07:00:42.013Z,6.47
2022-09-28T07:03:13.079Z,4.70
2022-09-28T07:05:45.984Z,6.85
2022-09-28T07:08:12.863Z,8.77
2022-09-28T07:10:49.475Z,6.70
2022-09-28T07:13:47.515Z,6.57
2022-09-28T07:16:06.612Z,5.93
2022-09-28T07:18:33.150Z,10.95
2022-09-28T07:20:59.816Z,7.65
2022-09-28T07:23:29.629Z,7.68
2022-09-28T07:25:58.204Z,6.65
2022-09-28T07:28:25.433Z,10.23
2022-09-28T07:30:52.052Z,5.75
2022-09-28T07:33:18.858Z,6.78
2022-09-28T07:35:53.209Z,8.27
2022-09-28T07:38:19.822Z,7.72
2022-09-28T07:41:05.265Z,9.67
2022-09-28T07:43:32.975Z,9.23
2022-09-28T07:45:59.741Z,8.50
2022-09-28T07:48:26.442Z,6.68
2022-09-28T07:50:57.425Z,6.55
2022-09-28T07:53:25.525Z,7.50
2022-09-28T07:55:53.550Z,12.30
2022-09-28T07:58:20.767Z,14.68
2022-09-28T08:00:48.884Z,16.67
2022-09-28T08:03:21.890Z,11.45
2022-09-28T08:05:48.531Z,8.57
2022-09-28T08:08:15.558Z,7.95
2022-09-28T08:10:46.824Z,6.65
2022-09-28T08:13:15.237Z,9.00
2022-09-28T08:15:42.646Z,7.22
2022-09-28T08:18:09.930Z,22.37
2022-09-28T08:20:55.349Z,9.60
2022-09-28T08:23:23.315Z,5.97
2022-09-28T08:25:52.585Z,8.82
2022-09-28T08:28:19.303Z,22.90
2022-09-28T08:30:47.127Z,7.50
2022-09-28T08:33:15.200Z,9.40
2022-09-28T08:35:42.111Z,4.22
2022-09-28T08:38:10.705Z,4.82
2022-09-28T08:40:57.597Z,5.97
2022-09-28T08:43:53.098Z,9.70
2022-09-28T08:46:26.382Z,12.48
2022-09-28T08:49:23.707Z,16.08
2022-09-28T08:52:13.791Z,11.10
2022-09-28T08:54:56.198Z,11.70
2022-09-28T08:57:27.709Z,10.53
2022-09-28T08:59:59.837Z,13.02
2022-09-28T09:02:39.761Z,12.27
2022-09-28T09:05:14.857Z,5.65
2022-09-28T09:08:06.809Z,12.00
2022-09-28T09:10:33.967Z,10.50
2022-09-28T09:13:45.810Z,10.35
2022-09-28T09:16:45.872Z,7.40
2022-09-28T09:19:52.808Z,4.70
2022-09-28T09:22:40.027Z,25.30
2022-09-28T09:25:20.613Z,16.17
2022-09-28T09:28:12.146Z,8.40
2022-09-28T09:31:05.209Z,5.53
2022-09-28T09:33:55.443Z,8.20
2022-09-28T09:36:41.332Z,5.22
2022-09-28T09:39:17.429Z,4.40
2022-09-28T09:41:53.173Z,5.70
2022-09-28T09:44:48.922Z,5.80
2022-09-28T09:47:32.872Z,9.95
2022-09-28T09:50:16.505Z,7.22
2022-09-28T09:52:57.573Z,7.23
2022-09-28T09:55:30.278Z,5.15
2022-09-28T09:58:04.971Z,7.72
2022-09-28T10:00:32.356Z,5.40
2022-09-28T10:03:00.608Z,7.85
2022-09-28T10:05:30.818Z,8.70
2022-09-28T10:08:09.278Z,4.47
2022-09-28T10:10:40.177Z,7.15
2022-09-28T10:13:06.763Z,11.23
2022-09-28T10:15:37.915Z,8.80
2022-09-28T10:18:10.140Z,5.50
2022-09-28T10:20:40.037Z,7.18
2022-09-28T10:23:17.434Z,4.80
2022-09-28T10:25:46.090Z,3.58
2022-09-28T10:28:21.411Z,8.68
2022-09-28T10:30:48.177Z,4.80
2022-09-28T10:33:32.731Z,9.68
2022-09-28T10:36:01.785Z,12.80
2022-09-28T10:38:30.420Z,13.20
2022-09-28T10:41:09.449Z,16.40
2022-09-28T10:43:53.835Z,28.40
2022-09-28T10:46:23.870Z,6.68
2022-09-28T10:49:04.797Z,5.72
2022-09-28T10:51:48.086Z,2.75
2022-09-28T10:54:20.347Z,5.85
2022-09-28T10:56:48.265Z,4.50
2022-09-28T10:59:29.880Z,3.97
2022-09-28T11:02:00.860Z,8.57
2022-09-28T11:04:29.721Z,5.43
2022-09-28T11:09:31.293Z,6.70
2022-09-28T11:12:04.769Z,11.15
2022-09-28T11:14:41.882Z,18.13
2022-09-28T11:17:32.602Z,10.63
2022-09-28T11:20:29.606Z,9.02
2022-09-28T11:23:04.348Z,16.53
2022-09-28T11:25:31.345Z,18.40
2022-09-28T11:28:01.618Z,15.48
2022-09-28T11:30:52.074Z,7.57
2022-09-28T11:33:27.700Z,13.48
2022-09-28T11:36:06.364Z,14.27
2022-09-28T11:38:54.719Z,14.35
2022-09-28T11:41:53.721Z,14.13
2022-09-28T11:44:44.630Z,14.80
2022-09-28T11:47:29.605Z,10.80
2022-09-28T11:50:24.099Z,9.27
2022-09-28T11:53:10.360Z,4.78
2022-09-28T11:55:43.971Z,4.47
2022-09-28T11:58:22.431Z,4.15
2022-09-28T12:00:59.406Z,17.00
2022-09-28T12:03:36.160Z,8.40
2022-09-28T12:06:07.874Z,27.42
2022-09-28T12:08:39.996Z,20.92
2022-09-28T12:11:18.177Z,32.65
2022-09-28T12:13:51.615Z,17.45
2022-09-28T12:16:53.501Z,22.87
2022-09-28T12:19:32.208Z,14.00
2022-09-28T12:22:11.372Z,7.47
2022-09-28T12:24:44.065Z,12.02
2022-09-28T12:27:10.532Z,13.77
2022-09-28T12:29:47.528Z,10.27
2022-09-28T12:32:23.049Z,6.45
2022-09-28T12:34:49.791Z,20.13
2022-09-28T12:37:34.972Z,31.23
2022-09-28T12:40:04.716Z,8.70
2022-09-28T12:43:03.328Z,6.70
2022-09-28T12:45:35.543Z,9.18
2022-09-28T12:48:24.015Z,8.88
2022-09-28T12:51:28.988Z,12.48
2022-09-28T12:54:08.220Z,19.70
2022-09-28T12:57:00.309Z,7.30
2022-09-28T12:59:39.918Z,15.02
2022-09-28T13:02:44.943Z,20.50
2022-09-28T13:05:46.199Z,7.43
2022-09-28T13:08:30.535Z,12.82
2022-09-28T13:11:18.162Z,14.77
2022-09-28T13:14:09.912Z,14.85
2022-09-28T13:16:42.368Z,4.95
2022-09-28T13:19:16.913Z,10.05
2022-09-28T13:22:12.118Z,15.45
2022-09-28T13:24:44.318Z,16.33
2022-09-28T13:27:19.442Z,8.57
2022-09-28T13:29:49.212Z,5.82
2022-09-28T13:32:17.532Z,13.55
2022-09-28T13:34:50.186Z,13.98
2022-09-28T13:37:25.652Z,27.30
2022-09-28T13:39:56.816Z,14.63
2022-09-28T13:42:35.512Z,25.45
2022-09-28T13:45:09.583Z,7.82
2022-09-28T13:47:51.689Z,7.40
2022-09-28T13:50:50.082Z,12.33
2022-09-28T13:53:23.277Z,10.23
2022-09-28T13:55:54.054Z,9.95
2022-09-28T13:58:25.785Z,12.65
2022-09-28T14:01:17.642Z,15.38
2022-09-28T14:03:53.874Z,6.23
2022-09-28T14:06:29.601Z,10.43
2022-09-28T14:08:58.933Z,10.02
2022-09-28T14:11:34.428Z,3.05
2022-09-28T14:14:14.262Z,10.00
2022-09-28T14:16:44.415Z,7.20
2022-09-28T14:19:31.405Z,2.38
2022-09-28T14:22:08.217Z,3.67
2022-09-28T14:24:59.005Z,12.75
2022-09-28T14:27:41.811Z,1.73
2022-09-28T14:30:20.878Z,5.77
2022-09-28T14:32:59.066Z,1.77
2022-09-28T14:35:31.456Z,1.45
2022-09-28T14:38:25.290Z,2.15
2022-09-28T14:41:19.672Z,3.67
2022-09-28T14:43:46.156Z,1.90
2022-09-28T14:46:15.686Z,2.88
2022-09-28T14:48:55.188Z,7.40
2022-09-28T14:51:24.684Z,11.88
2022-09-28T14:53:56.546Z,21.50
2022-09-28T14:56:27.009Z,2.30
2022-09-28T14:58:58.039Z,2.42
2022-09-28T15:01:26.129Z,2.42
2022-09-28T15:03:56.608Z,1.67
2022-09-28T15:06:24.772Z,2.33
2022-09-28T15:08:51.492Z,1.60
2022-09-28T15:11:24.454Z,3.25
2022-09-28T15:14:04.500Z,3.22
2022-09-28T15:16:32.185Z,4.97
2022-09-28T15:19:30.037Z,3.17
2022-09-28T15:21:56.666Z,1.80
2022-09-28T15:24:32.938Z,2.88
2022-09-28T15:27:13.668Z,12.65
2022-09-28T15:29:41.046Z,6.82
2022-09-28T15:32:23.916Z,8.25
2022-09-28T15:34:54.732Z,16.13
2022-09-28T15:37:29.739Z,10.50
2022-09-28T15:39:58.145Z,16.15
2022-09-28T15:42:25.689Z,5.85
2022-09-28T15:45:25.481Z,5.10
2022-09-28T15:48:13.943Z,5.43
2022-09-28T15:50:45.753Z,9.20
2022-09-28T15:53:18.066Z,20.65
2022-09-28T15:55:45.090Z,22.65
2022-09-28T15:58:19.440Z,11.60
2022-09-28T16:00:48.098Z,19.20
2022-09-28T16:03:17.321Z,20.08
2022-09-28T16:06:08.960Z,26.13
2022-09-28T16:08:43.851Z,29.77
2022-09-28T16:11:21.781Z,20.60
2022-09-28T16:14:05.945Z,4.00
2022-09-28T16:16:46.469Z,5.32
2022-09-28T16:19:23.650Z,4.18
2022-09-28T16:21:55.853Z,4.45
2022-09-28T16:24:30.489Z,1.95
2022-09-28T16:26:58.820Z,4.77
2022-09-28T16:29:41.550Z,4.57
2022-09-28T16:32:26.150Z,9.25
2022-09-28T16:35:10.959Z,22.42
2022-09-28T16:37:42.136Z,18.98
2022-09-28T16:40:11.541Z,22.00
2022-09-28T16:42:40.420Z,19.27
2022-09-28T16:45:08.226Z,22.40
2022-09-28T16:47:34.902Z,21.20
2022-09-28T16:50:06.361Z,38.80
2022-09-28T16:52:51.520Z,24.00
2022-09-28T16:58:04.848Z,27.45
2022-09-28T17:00:32.480Z,31.63
2022-09-28T17:02:59.311Z,37.33
2022-09-28T17:05:26.026Z,24.53
2022-09-28T17:08:03.508Z,30.38
2022-09-28T17:10:50.197Z,24.42
2022-09-28T17:13:31.350Z,23.40
2022-09-28T17:15:58.661Z,31.65
2022-09-28T17:18:25.736Z,47.13
2022-09-28T17:20:55.621Z,22.92
2022-09-28T17:23:22.251Z,15.60
2022-09-28T17:25:49.112Z,14.88
2022-09-28T17:28:22.346Z,11.05
2022-09-28T17:30:49.065Z,16.13
2022-09-28T17:33:15.793Z,13.60
2022-09-28T17:35:44.069Z,15.52
2022-09-28T17:38:15.292Z,12.68
2022-09-28T17:40:43.535Z,10.15
2022-09-28T17:43:10.155Z,8.73
2022-09-28T17:45:41.707Z,10.55
2022-09-28T17:48:15.880Z,8.45
2022-09-28T17:50:46.431Z,8.32
2022-09-28T17:53:13.899Z,9.23
2022-09-28T17:55:40.932Z,8.27
2022-09-28T17:58:19.549Z,8.27
2022-09-28T18:00:48.047Z,11.00
2022-09-28T18:03:17.675Z,9.18
2022-09-28T18:05:45.078Z,11.57
2022-09-28T18:08:15.074Z,8.10
2022-09-28T18:10:41.619Z,28.30
2022-09-28T18:13:08.513Z,31.58
2022-09-28T18:15:35.608Z,34.25
2022-09-28T18:18:02.210Z,32.30
2022-09-28T18:20:29.671Z,37.97
2022-09-28T18:22:57.316Z,73.32
2022-09-28T18:25:23.886Z,60.40
2022-09-28T18:27:50.400Z,28.88
2022-09-28T18:30:17.067Z,25.35
2022-09-28T18:32:43.640Z,13.73
2022-09-28T18:35:11.182Z,15.50
2022-09-28T18:37:39.986Z,15.70
2022-09-28T18:40:09.186Z,12.27
2022-09-28T18:42:36.240Z,13.73
2022-09-28T18:45:04.010Z,14.03
2022-09-28T18:47:30.546Z,11.88
2022-09-28T18:49:57.818Z,13.30
2022-09-28T18:52:25.644Z,14.60
2022-09-28T18:54:52.202Z,10.10
2022-09-28T18:57:19.204Z,10.40
2022-09-28T18:59:46.277Z,14.70
2022-09-28T19:02:13.327Z,11.80
2022-09-28T19:04:40.867Z,15.18
2022-09-28T19:07:08.401Z,11.15
2022-09-28T19:09:35.171Z,10.10
2022-09-28T19:12:02.088Z,10.15
2022-09-28T19:14:28.665Z,11.40
2022-09-28T19:16:55.242Z,13.23
2022-09-28T19:19:21.781Z,12.18
2022-09-28T19:21:48.460Z,14.30
2022-09-28T19:24:17.759Z,12.93
2022-09-28T19:26:45.182Z,16.63
2022-09-28T19:29:11.996Z,18.90
2022-09-28T19:31:39.189Z,17.08
2022-09-28T19:34:06.693Z,18.33
2022-09-28T19:36:33.988Z,19.40
2022-09-28T19:39:03.964Z,19.25
2022-09-28T19:41:49.265Z,20.55
2022-09-28T19:44:25.651Z,24.83
2022-09-28T19:47:00.283Z,20.87
2022-09-28T19:49:27.854Z,22.80
2022-09-28T19:54:45.081Z,20.55
2022-09-28T19:57:14.466Z,16.25
2022-09-28T19:59:41.293Z,15.43
2022-09-28T20:02:08.571Z,21.13
2022-09-28T20:04:35.346Z,21.25
2022-09-28T20:07:02.429Z,18.65
2022-09-28T20:09:29.408Z,15.23
2022-09-28T20:11:56.022Z,15.07
2022-09-28T20:14:24.589Z,17.65
2022-09-28T20:16:54.801Z,15.43
2022-09-28T20:19:23.061Z,18.55
2022-09-28T20:21:50.003Z,22.65
2022-09-28T20:24:17.285Z,16.33
2022-09-28T20:26:45.741Z,16.55
2022-09-28T20:29:12.866Z,13.85
2022-09-28T20:31:39.539Z,14.98
2022-09-28T20:34:06.568Z,14.27
2022-09-28T20:36:33.835Z,12.87
2022-09-28T20:39:04.655Z,17.30
2022-09-28T20:41:36.865Z,13.27
2022-09-28T20:44:06.186Z,13.93
2022-09-28T20:46:34.907Z,12.00
2022-09-28T20:49:01.748Z,12.53
2022-09-28T20:51:28.433Z,12.45
2022-09-28T20:53:56.591Z,16.05
2022-09-28T20:56:26.959Z,10.75
2022-09-28T20:58:54.431Z,16.55
2022-09-28T21:01:25.250Z,12.33
2022-09-28T21:03:54.331Z,13.48
2022-09-28T21:06:23.156Z,11.55
2022-09-28T21:08:50.304Z,11.80
2022-09-28T21:11:19.162Z,11.65
2022-09-28T21:13:46.322Z,13.03
2022-09-28T21:16:18.032Z,10.95
2022-09-28T21:18:44.760Z,15.20
2022-09-28T21:21:16.893Z,9.68
2022-09-28T21:23:46.513Z,12.93
2022-09-28T21:26:16.041Z,10.63
2022-09-28T21:28:44.713Z,11.40
2022-09-28T21:31:12.191Z,12.05
2022-09-28T21:33:38.891Z,14.02
2022-09-28T21:36:07.268Z,10.32
2022-09-28T21:38:34.750Z,9.87
2022-09-28T21:41:02.177Z,11.18
2022-09-28T21:43:31.638Z,11.38
2022-09-28T21:45:58.707Z,14.40
2022-09-28T21:48:27.253Z,11.30
2022-09-28T21:50:56.002Z,10.47
2022-09-28T21:53:23.927Z,10.65
2022-09-28T21:55:54.883Z,10.32
2022-09-28T21:58:23.299Z,11.48
2022-09-28T22:00:59.577Z,13.02
2022-09-28T22:03:26.067Z,13.17
2022-09-28T22:05:52.690Z,10.10
2022-09-28T22:08:20.611Z,9.90
2022-09-28T22:11:07.834Z,11.70
2022-09-28T22:13:36.553Z,10.48
2022-09-28T22:16:03.312Z,12.02
2022-09-28T22:18:31.803Z,12.65
2022-09-28T22:21:06.603Z,10.65
2022-09-28T22:23:34.049Z,13.98
2022-09-28T22:26:03.379Z,13.80
2022-09-28T22:28:30.052Z,12.27
2022-09-28T22:30:57.824Z,11.75
2022-09-28T22:33:24.760Z,17.08
2022-09-28T22:35:51.575Z,10.88
2022-09-28T22:38:19.347Z,15.63
2022-09-28T22:40:49.706Z,11.60
2022-09-28T22:43:18.740Z,11.52
2022-09-28T22:45:45.758Z,17.17
2022-09-28T22:48:13.145Z,12.23
2022-09-28T22:50:47.078Z,12.07
2022-09-28T22:53:14.162Z,13.37
2022-09-28T22:55:41.487Z,11.75
2022-09-28T22:58:08.062Z,14.30
2022-09-28T23:00:34.648Z,11.45
2022-09-28T23:03:01.270Z,14.77
2022-09-28T23:05:27.865Z,18.70
2022-09-28T23:07:54.397Z,13.60
2022-09-28T23:10:22.024Z,11.82
2022-09-28T23:12:48.584Z,12.38
2022-09-28T23:15:15.438Z,22.17
2022-09-28T23:17:41.945Z,13.93
2022-09-28T23:20:08.902Z,12.07
2022-09-28T23:22:35.438Z,13.73
2022-09-28T23:25:01.944Z,11.82
2022-09-28T23:27:28.479Z,12.23
2022-09-28T23:29:55.008Z,15.83
2022-09-28T23:32:21.462Z,15.40
2022-09-28T23:34:48.037Z,12.63
2022-09-28T23:37:14.580Z,12.15
2022-09-28T23:39:42.151Z,14.50
2022-09-28T23:42:08.644Z,11.65
2022-09-28T23:44:35.250Z,14.43
2022-09-28T23:47:01.794Z,13.32
2022-09-28T23:49:29.648Z,16.05
2022-09-28T23:51:56.220Z,12.93
2022-09-28T23:54:22.788Z,15.83
2022-09-28T23:56:49.334Z,14.90
2022-09-28T23:59:15.915Z,12.25
